EICK - Cork Airport
Distance from station: E 5mi, 14km
Updated: 12/10/2017 9:00pm
Partly Cloudy
Partly Cloudy
 Wind from NNW
Wind: NNW 20 mph , 31 km/h
Temperature: 32°F , 0°C
Wind Chill: 20°F , -7°C
Dew Point: 30°F , -1°C
Humidity: 93%
Barometer: 29.18 inHg , 988 hPa
Clouds: Partly Cloudy
Visibility: 6 miles , 10 km
Cloud details: Mostly Cloudy 700 ft
Partly Cloudy 2600 ft
2017/12/11 05:00 EICK 110500Z 34017KT 9999 BKN007 SCT026 M00/M01 Q0988 TEMPO BKN010